createdAt,value
2022-11-28T00:01:42.343Z,129.10
2022-11-28T00:04:11.737Z,122.80
2022-11-28T00:06:41.854Z,142.40
2022-11-28T00:09:10.649Z,140.70
2022-11-28T00:11:41.277Z,133.70
2022-11-28T00:14:10.417Z,135.80
2022-11-28T00:16:39.395Z,136.20
2022-11-28T00:19:08.453Z,125.10
2022-11-28T00:21:39.638Z,124.50
2022-11-28T00:24:09.146Z,129.30
2022-11-28T00:26:41.080Z,132.80
2022-11-28T00:29:10.291Z,136.50
2022-11-28T00:31:42.052Z,130.10
2022-11-28T00:34:11.323Z,120.30
2022-11-28T00:36:40.498Z,117.70
2022-11-28T00:39:08.954Z,120.20
2022-11-28T00:41:39.751Z,126.80
2022-11-28T00:44:08.542Z,118.80
2022-11-28T00:46:37.658Z,116.00
2022-11-28T00:49:05.946Z,130.20
2022-11-28T00:51:35.559Z,125.20
2022-11-28T00:54:05.261Z,135.20
2022-11-28T00:56:35.060Z,123.70
2022-11-28T00:59:03.752Z,120.20
2022-11-28T01:01:34.155Z,119.20
2022-11-28T01:04:04.351Z,120.30
2022-11-28T01:06:35.438Z,113.10
2022-11-28T01:09:06.075Z,113.50
2022-11-28T01:11:35.160Z,101.90
2022-11-28T01:14:03.440Z,110.20
2022-11-28T01:16:32.043Z,121.20
2022-11-28T01:19:00.454Z,115.20
2022-11-28T01:21:28.883Z,99.70
2022-11-28T01:23:57.243Z,107.70
2022-11-28T01:26:27.588Z,109.70
2022-11-28T01:28:56.477Z,111.70
2022-11-28T01:31:27.769Z,108.40
2022-11-28T01:33:56.523Z,115.20
2022-11-28T01:36:25.732Z,113.60
2022-11-28T01:38:54.212Z,109.40
2022-11-28T01:41:25.149Z,102.20
2022-11-28T01:44:07.292Z,106.70
2022-11-28T01:46:36.805Z,100.40
2022-11-28T01:49:11.156Z,103.60
2022-11-28T01:51:42.049Z,108.40
2022-11-28T01:54:13.083Z,101.80
2022-11-28T01:56:46.468Z,99.80
2022-11-28T01:59:16.683Z,105.00
2022-11-28T02:01:47.840Z,102.40
2022-11-28T02:04:17.018Z,107.60
2022-11-28T02:06:45.911Z,113.40
2022-11-28T02:09:16.149Z,118.10
2022-11-28T02:12:08.004Z,103.90
2022-11-28T02:14:49.964Z,98.20
2022-11-28T02:17:27.164Z,95.80
2022-11-28T02:20:35.844Z,109.10
2022-11-28T02:23:09.032Z,109.20
2022-11-28T02:26:11.541Z,96.90
2022-11-28T02:29:16.766Z,86.30
2022-11-28T02:32:13.705Z,104.40
2022-11-28T02:34:47.435Z,99.60
2022-11-28T02:37:23.676Z,100.10
2022-11-28T02:40:00.117Z,95.30
2022-11-28T02:42:33.567Z,109.50
2022-11-28T02:45:09.121Z,103.30
2022-11-28T02:47:39.605Z,117.20
2022-11-28T02:50:11.685Z,104.10
2022-11-28T02:52:41.930Z,111.60
2022-11-28T02:55:10.315Z,112.10
2022-11-28T02:57:39.929Z,108.10
2022-11-28T03:00:27.985Z,103.80
2022-11-28T03:03:17.392Z,97.60
2022-11-28T03:05:50.803Z,93.40
2022-11-28T03:08:31.709Z,98.70
2022-11-28T03:11:06.056Z,104.60
2022-11-28T03:13:39.982Z,96.50
2022-11-28T03:18:45.227Z,90.80
2022-11-28T03:21:21.971Z,102.10
2022-11-28T03:23:54.789Z,97.60
2022-11-28T03:26:27.759Z,105.50
2022-11-28T03:29:01.355Z,92.80
2022-11-28T03:31:34.550Z,86.70
2022-11-28T03:34:04.872Z,82.50
2022-11-28T03:36:36.320Z,98.90
2022-11-28T03:39:06.956Z,106.00
2022-11-28T03:41:37.830Z,103.40
2022-11-28T03:44:09.579Z,100.70
2022-11-28T03:46:44.202Z,103.90
2022-11-28T03:49:16.360Z,107.00
2022-11-28T03:51:47.998Z,111.60
2022-11-28T03:54:19.961Z,114.80
2022-11-28T03:56:53.872Z,95.00
2022-11-28T03:59:25.726Z,104.40
2022-11-28T04:01:57.757Z,111.40
2022-11-28T04:04:29.435Z,115.10
2022-11-28T04:07:03.807Z,103.10
2022-11-28T04:09:39.396Z,117.60
2022-11-28T04:12:13.560Z,110.10
2022-11-28T04:17:16.989Z,104.00
2022-11-28T04:19:48.965Z,106.70
2022-11-28T04:22:21.349Z,113.60
2022-11-28T04:24:53.368Z,109.70
2022-11-28T04:27:26.843Z,114.30
2022-11-28T04:29:58.463Z,116.70
2022-11-28T04:32:28.021Z,120.20
2022-11-28T04:34:59.446Z,112.80
2022-11-28T04:37:29.411Z,121.40
2022-11-28T04:39:57.771Z,109.30
2022-11-28T04:42:31.501Z,115.70
2022-11-28T04:45:06.036Z,113.40
2022-11-28T04:47:34.749Z,122.30
2022-11-28T04:50:04.614Z,120.50
2022-11-28T04:52:37.315Z,112.30
2022-11-28T04:55:09.821Z,103.30
2022-11-28T04:57:40.598Z,108.60
2022-11-28T05:00:13.178Z,102.20
2022-11-28T05:02:44.564Z,116.70
2022-11-28T05:05:15.582Z,118.80
2022-11-28T05:07:44.182Z,102.80
2022-11-28T05:10:13.875Z,104.60
2022-11-28T05:12:43.021Z,102.70
2022-11-28T05:15:12.278Z,97.40
2022-11-28T05:17:42.628Z,109.00
2022-11-28T05:20:15.899Z,114.70
2022-11-28T05:22:44.585Z,111.10
2022-11-28T05:25:13.278Z,117.50
2022-11-28T05:27:41.660Z,112.70
2022-11-28T05:30:12.880Z,113.50
2022-11-28T05:32:41.732Z,106.30
2022-11-28T05:35:10.104Z,101.60
2022-11-28T05:37:39.022Z,99.70
2022-11-28T05:40:09.156Z,110.60
2022-11-28T05:42:37.542Z,106.90
2022-11-28T05:45:07.577Z,113.40
2022-11-28T05:47:36.200Z,113.40
2022-11-28T05:50:06.229Z,112.30
2022-11-28T05:52:36.084Z,101.30
2022-11-28T05:55:06.656Z,102.70
2022-11-28T05:57:35.094Z,103.60
2022-11-28T06:00:06.344Z,106.10
2022-11-28T06:02:36.755Z,101.20
2022-11-28T06:05:21.325Z,93.40
2022-11-28T06:07:54.797Z,95.60
2022-11-28T06:10:27.704Z,102.10
2022-11-28T06:13:14.421Z,97.60
2022-11-28T06:15:58.607Z,90.10
2022-11-28T06:18:37.385Z,103.90
2022-11-28T06:21:15.502Z,93.90
2022-11-28T06:24:08.292Z,100.80
2022-11-28T06:26:49.838Z,94.40
2022-11-28T06:29:26.317Z,92.30
2022-11-28T06:32:00.246Z,89.20
2022-11-28T06:34:34.319Z,100.70
2022-11-28T06:37:03.322Z,100.10
2022-11-28T06:39:31.840Z,103.20
2022-11-28T06:42:00.555Z,109.20
2022-11-28T06:44:29.113Z,98.00
2022-11-28T06:46:57.462Z,114.50
2022-11-28T06:49:27.805Z,102.00
2022-11-28T06:51:56.413Z,89.60
2022-11-28T06:54:24.998Z,100.50
2022-11-28T06:56:53.373Z,90.10
2022-11-28T06:59:21.759Z,106.10
2022-11-28T07:01:50.036Z,84.00
2022-11-28T07:04:19.021Z,95.60
2022-11-28T07:06:47.259Z,89.10
2022-11-28T07:09:15.745Z,97.60
2022-11-28T07:11:44.089Z,95.60
2022-11-28T07:14:12.870Z,85.50
2022-11-28T07:16:41.296Z,88.50
2022-11-28T07:19:12.172Z,98.00
2022-11-28T07:21:43.125Z,103.00
2022-11-28T07:24:11.728Z,89.50
2022-11-28T07:26:41.109Z,84.70
2022-11-28T07:29:13.226Z,83.90
2022-11-28T07:31:43.148Z,71.10
2022-11-28T07:34:11.667Z,75.80
2022-11-28T07:36:40.191Z,79.10
2022-11-28T07:39:10.060Z,77.50
2022-11-28T07:41:39.574Z,71.00
2022-11-28T07:44:08.102Z,80.80
2022-11-28T07:46:36.796Z,77.30
2022-11-28T07:49:05.317Z,58.00
2022-11-28T07:51:34.245Z,93.60
2022-11-28T07:54:03.832Z,81.50
2022-11-28T07:57:04.671Z,83.50
2022-11-28T07:59:23.207Z,72.30
2022-11-28T08:01:54.596Z,80.10
2022-11-28T08:04:24.276Z,94.20
2022-11-28T08:06:52.686Z,76.40
2022-11-28T08:09:21.470Z,74.00
2022-11-28T08:11:51.961Z,87.80
2022-11-28T08:14:23.113Z,77.80
2022-11-28T08:16:53.418Z,88.90
2022-11-28T08:19:24.790Z,84.70
2022-11-28T08:21:54.041Z,90.40
2022-11-28T08:24:22.629Z,88.60
2022-11-28T08:26:51.419Z,79.40
2022-11-28T08:29:20.477Z,92.60
2022-11-28T08:31:52.439Z,85.30
2022-11-28T08:34:21.222Z,88.90
2022-11-28T08:36:49.780Z,86.50
2022-11-28T08:39:25.966Z,84.30
2022-11-28T08:41:56.575Z,81.40
2022-11-28T08:44:25.531Z,96.90
2022-11-28T08:46:54.371Z,81.50
2022-11-28T08:49:22.978Z,88.90
2022-11-28T08:51:51.749Z,91.50
2022-11-28T08:54:20.277Z,80.10
2022-11-28T08:56:48.882Z,83.50
2022-11-28T08:59:17.875Z,77.80
2022-11-28T09:01:46.331Z,87.90
2022-11-28T09:04:15.043Z,77.10
2022-11-28T09:06:44.399Z,87.10
2022-11-28T09:09:12.757Z,77.90
2022-11-28T09:11:42.155Z,79.80
2022-11-28T09:14:10.949Z,77.60
2022-11-28T09:16:39.945Z,82.80
2022-11-28T09:19:10.070Z,86.00
2022-11-28T09:21:39.596Z,81.10
2022-11-28T09:24:09.409Z,88.20
2022-11-28T09:26:38.026Z,82.60
2022-11-28T09:29:06.783Z,85.60
2022-11-28T09:31:35.447Z,74.50
2022-11-28T09:34:04.331Z,68.30
2022-11-28T09:36:33.205Z,69.50
2022-11-28T09:39:02.009Z,78.00
2022-11-28T09:41:47.485Z,81.10
2022-11-28T09:44:21.425Z,74.60
2022-11-28T09:49:25.445Z,72.80
2022-11-28T09:51:57.487Z,74.50
2022-11-28T09:54:32.734Z,78.80
2022-11-28T09:57:03.086Z,79.30
2022-11-28T09:59:32.214Z,88.10
2022-11-28T10:02:13.849Z,69.70
2022-11-28T10:04:44.593Z,72.40
2022-11-28T10:07:18.374Z,74.50
2022-11-28T10:09:54.386Z,80.00
2022-11-28T10:12:32.401Z,71.00
2022-11-28T10:15:22.888Z,74.50
2022-11-28T10:18:03.084Z,73.50
2022-11-28T10:20:34.005Z,69.40
2022-11-28T10:23:07.237Z,70.20
2022-11-28T10:25:38.944Z,70.80
2022-11-28T10:28:11.743Z,70.30
2022-11-28T10:30:42.339Z,68.50
2022-11-28T10:33:16.782Z,64.30
2022-11-28T10:35:49.998Z,63.30
2022-11-28T10:38:25.034Z,59.60
2022-11-28T10:40:59.468Z,60.20
2022-11-28T10:43:39.303Z,59.10
2022-11-28T10:46:33.605Z,67.50
2022-11-28T10:49:16.273Z,73.90
2022-11-28T10:51:52.469Z,72.30
2022-11-28T10:54:30.397Z,66.60
2022-11-28T10:57:06.211Z,62.10
2022-11-28T10:59:43.993Z,68.60
2022-11-28T11:02:22.408Z,76.90
2022-11-28T11:04:50.996Z,66.00
2022-11-28T11:07:29.301Z,65.10
2022-11-28T11:10:05.429Z,64.60
2022-11-28T11:12:35.235Z,61.70
2022-11-28T11:15:21.233Z,68.40
2022-11-28T11:18:05.124Z,70.30
2022-11-28T11:20:47.902Z,62.80
2022-11-28T11:23:21.084Z,69.60
2022-11-28T11:25:54.008Z,67.50
2022-11-28T11:28:44.436Z,62.20
2022-11-28T11:31:28.133Z,66.00
2022-11-28T11:34:04.663Z,69.20
2022-11-28T11:36:36.164Z,73.60
2022-11-28T11:39:22.357Z,62.90
2022-11-28T11:42:08.949Z,68.60
2022-11-28T11:44:40.355Z,68.30
2022-11-28T11:47:10.198Z,73.60
2022-11-28T11:49:42.965Z,70.20
2022-11-28T11:52:24.183Z,70.00
2022-11-28T11:55:02.647Z,77.70
2022-11-28T11:57:50.468Z,73.20
2022-11-28T12:00:21.857Z,71.00
2022-11-28T12:02:55.363Z,79.80
2022-11-28T12:05:41.727Z,72.40
2022-11-28T12:08:25.714Z,65.30
2022-11-28T12:11:10.535Z,79.80
2022-11-28T12:13:40.070Z,84.00
2022-11-28T12:16:21.997Z,80.50
2022-11-28T12:18:57.526Z,89.10
2022-11-28T12:21:32.199Z,91.90
2022-11-28T12:24:08.704Z,87.10
2022-11-28T12:26:43.866Z,82.90
2022-11-28T12:29:34.176Z,84.30
2022-11-28T12:32:17.079Z,82.40
2022-11-28T12:34:56.060Z,84.50
2022-11-28T12:38:02.577Z,79.80
2022-11-28T12:40:30.215Z,75.90
2022-11-28T12:43:16.392Z,84.00
2022-11-28T12:45:51.157Z,68.30
2022-11-28T12:48:38.815Z,72.20
2022-11-28T12:51:24.297Z,81.50
2022-11-28T12:54:30.126Z,72.10
2022-11-28T12:57:04.479Z,68.10
2022-11-28T12:59:38.223Z,59.00
2022-11-28T13:02:25.152Z,32.20
2022-11-28T13:05:14.539Z,69.30
2022-11-28T13:07:53.542Z,68.50
2022-11-28T13:10:26.836Z,64.50
2022-11-28T13:13:01.082Z,64.80
2022-11-28T13:18:09.258Z,67.80
2022-11-28T13:20:43.105Z,71.60
2022-11-28T13:23:18.197Z,59.80
2022-11-28T13:25:53.311Z,58.70
2022-11-28T13:28:27.790Z,28.70
2022-11-28T13:31:04.021Z,58.60
2022-11-28T13:33:41.254Z,59.20
2022-11-28T13:39:13.283Z,60.10
2022-11-28T13:42:21.258Z,54.20
2022-11-28T13:44:46.844Z,51.80
2022-11-28T13:47:28.764Z,68.00
2022-11-28T13:50:38.201Z,60.20
2022-11-28T13:53:24.805Z,62.30
2022-11-28T13:56:04.594Z,54.10
2022-11-28T13:58:41.890Z,63.20
2022-11-28T14:01:17.584Z,51.20
2022-11-28T14:03:48.934Z,62.70
2022-11-28T14:06:20.144Z,55.20
2022-11-28T14:08:59.876Z,61.00
2022-11-28T14:11:43.331Z,25.90
2022-11-28T14:14:39.502Z,57.90
2022-11-28T14:17:36.411Z,65.90
2022-11-28T14:20:17.722Z,54.60
2022-11-28T14:22:56.665Z,60.80
2022-11-28T14:25:28.102Z,55.00
2022-11-28T14:27:58.710Z,66.60
2022-11-28T14:30:31.587Z,62.90
2022-11-28T14:33:03.064Z,66.70
2022-11-28T14:36:02.466Z,53.90
2022-11-28T14:38:44.420Z,58.30
2022-11-28T14:41:20.280Z,63.00
2022-11-28T14:43:52.550Z,67.10
2022-11-28T14:46:33.313Z,62.10
2022-11-28T14:49:30.008Z,77.30
2022-11-28T14:52:30.836Z,75.40
2022-11-28T14:54:56.657Z,73.80
2022-11-28T14:57:27.922Z,88.70
2022-11-28T14:59:59.180Z,71.50
2022-11-28T15:02:42.687Z,68.40
2022-11-28T15:05:45.667Z,78.30
2022-11-28T15:08:50.754Z,77.70
2022-11-28T15:11:37.304Z,75.70
2022-11-28T15:14:19.536Z,71.90
2022-11-28T15:16:50.743Z,75.60
2022-11-28T15:19:29.893Z,93.40
2022-11-28T15:21:59.482Z,96.20
2022-11-28T15:24:30.681Z,72.50
2022-11-28T15:27:21.594Z,76.60
2022-11-28T15:29:55.012Z,69.50
2022-11-28T15:32:23.976Z,86.20
2022-11-28T15:34:56.925Z,75.40
2022-11-28T15:37:28.576Z,82.00
2022-11-28T15:39:57.378Z,65.00
2022-11-28T15:42:29.714Z,84.50
2022-11-28T15:45:06.286Z,87.60
2022-11-28T15:47:35.207Z,86.40
2022-11-28T15:50:19.220Z,82.40
2022-11-28T15:52:56.435Z,71.60
2022-11-28T15:55:28.104Z,61.60
2022-11-28T15:58:15.111Z,77.10
2022-11-28T16:00:45.842Z,67.30
2022-11-28T16:03:18.091Z,72.70
2022-11-28T16:05:47.004Z,65.90
2022-11-28T16:08:29.955Z,70.30
2022-11-28T16:11:01.784Z,64.70
2022-11-28T16:13:37.120Z,67.50
2022-11-28T16:16:14.717Z,75.50
2022-11-28T16:18:46.854Z,67.50
2022-11-28T16:21:15.582Z,67.90
2022-11-28T16:23:44.928Z,65.80
2022-11-28T16:26:26.825Z,68.90
2022-11-28T16:29:03.176Z,59.30
2022-11-28T16:31:32.851Z,63.10
2022-11-28T16:34:03.735Z,69.10
2022-11-28T16:36:38.691Z,58.30
2022-11-28T16:39:14.848Z,70.10
2022-11-28T16:41:48.676Z,66.50
2022-11-28T16:44:21.592Z,54.80
2022-11-28T16:46:52.596Z,62.90
2022-11-28T16:49:34.353Z,49.40
2022-11-28T16:52:39.644Z,69.80
2022-11-28T16:55:39.883Z,61.60
2022-11-28T16:58:17.750Z,57.10
2022-11-28T17:00:51.992Z,54.30
2022-11-28T17:06:06.575Z,37.40
2022-11-28T17:08:35.073Z,61.80
2022-11-28T17:11:03.532Z,21.70
2022-11-28T17:13:32.615Z,59.60
2022-11-28T17:16:01.357Z,53.70
2022-11-28T17:18:31.229Z,53.70
2022-11-28T17:21:00.863Z,29.80
2022-11-28T17:23:29.438Z,53.70
2022-11-28T17:25:58.138Z,57.40
2022-11-28T17:28:29.178Z,60.90
2022-11-28T17:30:57.740Z,57.00
2022-11-28T17:33:26.660Z,55.90
2022-11-28T17:35:56.012Z,48.70
2022-11-28T17:38:24.437Z,57.60
2022-11-28T17:40:52.811Z,54.20
2022-11-28T17:43:22.505Z,64.30
2022-11-28T17:45:50.974Z,59.50
2022-11-28T17:48:19.326Z,56.80
2022-11-28T17:50:50.703Z,59.60
2022-11-28T17:53:21.542Z,56.90
2022-11-28T17:55:52.657Z,67.90
2022-11-28T17:58:23.196Z,65.40
2022-11-28T18:00:56.079Z,47.90
2022-11-28T18:03:29.194Z,59.10
2022-11-28T18:05:57.981Z,53.50
2022-11-28T18:08:27.864Z,46.20
2022-11-28T18:11:04.215Z,59.60
2022-11-28T18:13:32.946Z,61.40
2022-11-28T18:16:01.581Z,63.30
2022-11-28T18:18:31.854Z,58.00
2022-11-28T18:21:00.414Z,59.80
2022-11-28T18:23:28.822Z,59.90
2022-11-28T18:25:57.394Z,64.80
2022-11-28T18:28:26.403Z,70.60
2022-11-28T18:30:54.955Z,65.50
2022-11-28T18:33:23.893Z,56.70
2022-11-28T18:35:55.618Z,64.70
2022-11-28T18:38:24.127Z,70.10
2022-11-28T18:40:53.818Z,69.10
2022-11-28T18:43:23.882Z,64.40
2022-11-28T18:45:52.270Z,86.40
2022-11-28T18:48:23.576Z,70.50
2022-11-28T18:50:53.222Z,68.90
2022-11-28T18:53:22.880Z,57.70
2022-11-28T18:56:02.134Z,59.90
2022-11-28T18:58:33.996Z,74.60
2022-11-28T19:01:12.452Z,64.80
2022-11-28T19:03:42.382Z,64.10
2022-11-28T19:06:13.144Z,68.40
2022-11-28T19:08:42.250Z,52.00
2022-11-28T19:11:13.970Z,77.60
2022-11-28T19:13:45.129Z,69.30
2022-11-28T19:16:15.685Z,73.40
2022-11-28T19:18:45.294Z,71.40
2022-11-28T19:21:15.798Z,74.70
2022-11-28T19:23:46.530Z,69.40
2022-11-28T19:26:16.684Z,71.50
2022-11-28T19:28:45.041Z,69.40
2022-11-28T19:31:16.228Z,68.50
2022-11-28T19:33:45.150Z,70.50
2022-11-28T19:36:14.430Z,63.40
2022-11-28T19:38:43.034Z,51.30
2022-11-28T19:41:14.181Z,64.00
2022-11-28T19:43:44.220Z,63.70
2022-11-28T19:46:15.610Z,69.00
2022-11-28T19:48:44.086Z,57.90
2022-11-28T19:51:15.325Z,56.40
2022-11-28T19:53:44.397Z,61.50
2022-11-28T19:56:16.144Z,58.50
2022-11-28T19:58:45.414Z,57.60
2022-11-28T20:01:15.383Z,61.40
2022-11-28T20:03:45.131Z,60.10
2022-11-28T20:06:16.299Z,64.30
2022-11-28T20:08:45.032Z,66.40
2022-11-28T20:11:15.326Z,63.80
2022-11-28T20:13:45.703Z,54.80
2022-11-28T20:16:17.694Z,52.20
2022-11-28T20:18:46.320Z,56.30
2022-11-28T20:21:16.032Z,42.50
2022-11-28T20:23:46.147Z,45.80
2022-11-28T20:26:15.572Z,41.40
2022-11-28T20:28:44.927Z,49.60
2022-11-28T20:31:19.031Z,38.70
2022-11-28T20:33:48.393Z,40.90
2022-11-28T20:36:18.753Z,43.00
2022-11-28T20:38:48.448Z,39.30
2022-11-28T20:41:19.891Z,43.00
2022-11-28T20:43:48.554Z,39.00
2022-11-28T20:46:19.686Z,42.30
2022-11-28T20:48:48.474Z,43.20
2022-11-28T20:51:19.612Z,30.70
2022-11-28T20:53:48.852Z,38.60
2022-11-28T20:56:19.164Z,38.10
2022-11-28T20:58:48.669Z,33.10
2022-11-28T21:01:18.706Z,35.20
2022-11-28T21:03:49.333Z,38.20
2022-11-28T21:06:18.792Z,48.30
2022-11-28T21:08:47.079Z,25.50
2022-11-28T21:11:30.886Z,34.40
2022-11-28T21:14:06.264Z,35.80
2022-11-28T21:16:35.614Z,35.60
2022-11-28T21:19:06.789Z,30.30
2022-11-28T21:21:36.969Z,36.50
2022-11-28T21:24:10.058Z,38.20
2022-11-28T21:26:42.352Z,34.00
2022-11-28T21:31:42.447Z,34.60
2022-11-28T21:34:13.861Z,35.40
2022-11-28T21:36:42.991Z,40.60
2022-11-28T21:39:13.342Z,37.90
2022-11-28T21:41:42.388Z,40.60
2022-11-28T21:44:10.807Z,38.00
2022-11-28T21:46:39.187Z,35.70
2022-11-28T21:49:08.185Z,35.40
2022-11-28T21:51:36.908Z,38.20
2022-11-28T21:54:05.508Z,32.20
2022-11-28T21:56:33.928Z,34.10
2022-11-28T21:59:05.970Z,34.90
2022-11-28T22:01:37.831Z,34.00
2022-11-28T22:04:08.993Z,33.80
2022-11-28T22:06:37.351Z,34.40
2022-11-28T22:09:09.697Z,41.10
2022-11-28T22:11:40.499Z,42.60
2022-11-28T22:14:09.459Z,37.00
2022-11-28T22:16:38.577Z,37.20
2022-11-28T22:19:07.241Z,60.40
2022-11-28T22:21:53.579Z,49.10
2022-11-28T22:24:25.628Z,45.60
2022-11-28T22:26:54.199Z,35.50
2022-11-28T22:29:22.897Z,44.40
2022-11-28T22:31:52.299Z,49.20
2022-11-28T22:34:21.442Z,39.70
2022-11-28T22:36:49.753Z,43.00
2022-11-28T22:39:18.509Z,45.50
2022-11-28T22:41:46.856Z,43.70
2022-11-28T22:44:15.281Z,40.10
2022-11-28T22:46:46.304Z,42.10
2022-11-28T22:49:15.169Z,38.50
2022-11-28T22:51:43.731Z,44.90
2022-11-28T22:54:13.256Z,40.90
2022-11-28T22:56:41.773Z,42.10
2022-11-28T22:59:12.390Z,49.30
2022-11-28T23:01:41.113Z,39.40
2022-11-28T23:04:09.950Z,45.30
2022-11-28T23:06:38.348Z,42.00
2022-11-28T23:09:07.879Z,45.20
2022-11-28T23:11:37.720Z,39.30
2022-11-28T23:14:06.412Z,40.30
2022-11-28T23:16:36.031Z,34.50
2022-11-28T23:19:09.962Z,27.70
2022-11-28T23:21:40.500Z,38.80
2022-11-28T23:24:10.421Z,52.10
2022-11-28T23:26:38.663Z,33.30
2022-11-28T23:29:07.124Z,48.60
2022-11-28T23:31:37.028Z,34.80
2022-11-28T23:34:05.575Z,39.10
2022-11-28T23:36:41.454Z,37.40
2022-11-28T23:39:17.174Z,45.70
2022-11-28T23:41:49.770Z,39.00
2022-11-28T23:44:19.322Z,37.10
2022-11-28T23:46:48.349Z,43.30
2022-11-28T23:49:16.862Z,38.10
2022-11-28T23:51:45.828Z,29.80
2022-11-28T23:54:16.106Z,39.50
2022-11-28T23:56:44.714Z,24.50
2022-11-28T23:59:13.368Z,39.80
